createdAt,value
2022-07-29T00:00:15.703Z,87.550000
2022-07-29T00:05:15.827Z,87.529167
2022-07-29T00:10:15.787Z,87.641667
2022-07-29T00:15:18.330Z,87.416667
2022-07-29T00:20:18.443Z,87.616000
2022-07-29T00:25:18.266Z,87.850000
2022-07-29T00:30:18.293Z,88.187500
2022-07-29T00:35:18.541Z,88.316667
2022-07-29T00:40:18.393Z,88.550000
2022-07-29T00:45:18.438Z,88.412500
2022-07-29T00:50:18.447Z,88.650000
2022-07-29T00:55:18.281Z,88.566667
2022-07-29T01:00:18.407Z,88.516667
2022-07-29T01:05:18.267Z,88.579167
2022-07-29T01:10:18.274Z,88.700000
2022-07-29T01:15:18.250Z,88.929167
2022-07-29T01:20:18.341Z,88.962500
2022-07-29T01:25:18.465Z,89.000000
2022-07-29T01:30:18.291Z,89.175000
2022-07-29T01:35:18.222Z,89.200000
2022-07-29T01:40:18.247Z,89.170833
2022-07-29T01:45:18.227Z,89.325000
2022-07-29T01:50:18.406Z,89.379167
2022-07-29T01:55:18.289Z,89.408333
2022-07-29T02:00:18.310Z,89.366667
2022-07-29T02:05:18.395Z,89.266667
2022-07-29T02:10:18.296Z,89.345833
2022-07-29T02:15:18.265Z,89.558333
2022-07-29T02:20:18.319Z,89.545833
2022-07-29T02:25:18.222Z,89.133333
2022-07-29T02:30:18.244Z,88.945833
2022-07-29T02:35:18.221Z,88.966667
2022-07-29T02:40:18.267Z,88.954167
2022-07-29T02:45:18.291Z,88.962500
2022-07-29T02:50:18.291Z,88.975000
2022-07-29T02:55:18.265Z,88.875000
2022-07-29T03:00:18.291Z,88.870833
2022-07-29T03:05:18.524Z,88.866667
2022-07-29T03:10:18.308Z,88.766667
2022-07-29T03:15:18.561Z,88.700000
2022-07-29T03:20:18.419Z,88.904167
2022-07-29T03:25:18.228Z,88.991667
2022-07-29T03:30:22.112Z,88.958333
2022-07-29T03:35:18.211Z,88.962500
2022-07-29T03:40:18.190Z,88.916667
2022-07-29T03:45:18.229Z,88.933333
2022-07-29T03:50:18.211Z,89.062500
2022-07-29T03:55:18.226Z,89.125000
2022-07-29T04:00:18.453Z,89.200000
2022-07-29T04:05:18.298Z,89.200000
2022-07-29T04:10:30.134Z,89.200000
2022-07-29T04:15:18.260Z,89.116667
2022-07-29T04:20:18.415Z,88.800000
2022-07-29T04:25:18.328Z,88.679167
2022-07-29T04:30:18.426Z,88.525000
2022-07-29T04:35:18.230Z,88.866667
2022-07-29T04:40:18.493Z,88.933333
2022-07-29T04:45:22.269Z,88.804167
2022-07-29T04:50:18.375Z,88.766667
2022-07-29T04:55:18.294Z,88.000000
2022-07-29T05:00:18.125Z,86.970833
2022-07-29T05:05:18.366Z,82.308333
2022-07-29T05:10:18.388Z,78.225000
2022-07-29T05:15:18.187Z,78.112000
2022-07-29T05:20:18.168Z,77.658333
2022-07-29T05:25:23.171Z,78.400000
2022-07-29T05:30:15.721Z,75.350000
2022-07-29T05:35:15.749Z,73.862500
2022-07-29T05:40:15.820Z,74.016667
2022-07-29T05:45:15.679Z,73.154167
2022-07-29T05:50:15.907Z,71.833333
2022-07-29T05:55:15.627Z,69.748000
2022-07-29T06:00:15.708Z,69.250000
2022-07-29T06:05:17.038Z,67.184000
2022-07-29T06:10:15.663Z,66.366667
2022-07-29T06:15:15.719Z,66.100000
2022-07-29T06:20:15.821Z,65.750000
2022-07-29T06:25:15.664Z,64.691667
2022-07-29T06:30:15.762Z,65.216667
2022-07-29T06:35:53.134Z,62.228000
2022-07-29T06:40:15.648Z,62.491667
2022-07-29T06:45:15.732Z,61.404167
2022-07-29T06:50:15.895Z,62.141667
2022-07-29T06:55:25.330Z,60.941667
2022-07-29T07:00:15.873Z,60.987500
2022-07-29T07:05:15.659Z,59.133333
2022-07-29T07:10:16.338Z,58.950000
2022-07-29T07:15:15.714Z,57.429167
2022-07-29T07:20:15.733Z,58.112500
2022-07-29T07:25:15.653Z,58.000000
2022-07-29T07:30:15.709Z,57.804167
2022-07-29T07:35:15.637Z,56.924000
2022-07-29T07:40:18.902Z,56.233333
2022-07-29T07:45:16.277Z,57.045833
2022-07-29T07:50:19.068Z,55.450000
2022-07-29T07:55:15.698Z,53.783333
2022-07-29T08:00:15.708Z,52.195833
2022-07-29T08:05:15.692Z,53.112500
2022-07-29T08:10:15.996Z,53.054167
2022-07-29T08:15:15.660Z,51.866667
2022-07-29T08:20:15.571Z,51.791667
2022-07-29T08:25:15.616Z,52.050000
2022-07-29T08:30:15.993Z,52.150000
2022-07-29T08:35:15.625Z,52.141667
2022-07-29T08:40:15.608Z,51.116667
2022-07-29T08:45:15.946Z,49.720833
2022-07-29T08:50:16.061Z,50.262500
2022-07-29T08:55:15.789Z,49.195833
2022-07-29T09:00:15.668Z,49.387500
2022-07-29T09:05:15.578Z,49.100000
2022-07-29T09:10:15.629Z,49.479167
2022-07-29T09:15:15.632Z,49.600000
2022-07-29T09:20:15.574Z,47.920833
2022-07-29T09:25:15.599Z,47.925000
2022-07-29T09:30:15.605Z,47.212500
2022-07-29T09:35:15.698Z,47.508333
2022-07-29T09:40:15.588Z,46.216667
2022-07-29T09:45:15.658Z,47.933333
2022-07-29T09:50:15.628Z,46.150000
2022-07-29T09:55:18.211Z,47.700000
2022-07-29T10:00:15.771Z,45.600000
2022-07-29T10:05:15.611Z,44.816667
2022-07-29T10:10:15.640Z,46.104167
2022-07-29T10:15:15.868Z,45.991667
2022-07-29T10:20:16.586Z,46.045833
2022-07-29T10:25:15.570Z,44.033333
2022-07-29T10:30:15.644Z,45.533333
2022-07-29T10:35:15.615Z,44.529167
2022-07-29T10:40:15.872Z,46.145833
2022-07-29T10:45:15.870Z,46.224000
2022-07-29T10:50:17.224Z,46.150000
2022-07-29T10:55:15.592Z,43.732000
2022-07-29T11:00:17.226Z,43.375000
2022-07-29T11:05:15.591Z,44.033333
2022-07-29T11:10:15.643Z,43.987500
2022-07-29T11:15:15.626Z,43.741667
2022-07-29T11:20:15.585Z,44.408333
2022-07-29T11:25:16.789Z,43.708333
2022-07-29T11:30:15.608Z,42.104167
2022-07-29T11:35:17.269Z,43.991667
2022-07-29T11:40:15.579Z,42.150000
2022-07-29T11:45:43.266Z,44.437500
2022-07-29T11:50:15.629Z,44.083333
2022-07-29T11:55:15.610Z,45.625000
2022-07-29T12:00:18.554Z,45.687500
2022-07-29T12:05:22.295Z,44.816667
2022-07-29T12:10:30.105Z,46.287500
2022-07-29T12:15:15.651Z,45.250000
2022-07-29T12:20:15.478Z,43.395833
2022-07-29T12:25:32.932Z,43.270833
2022-07-29T12:30:16.997Z,43.616667
2022-07-29T12:35:15.572Z,45.254167
2022-07-29T12:40:15.868Z,44.195833
2022-07-29T12:45:15.489Z,43.462500
2022-07-29T12:50:15.779Z,42.716667
2022-07-29T12:55:15.576Z,44.066667
2022-07-29T13:00:15.878Z,45.170833
2022-07-29T13:05:15.661Z,46.916667
2022-07-29T13:10:15.742Z,42.454167
2022-07-29T13:15:15.553Z,40.795833
2022-07-29T13:20:15.735Z,41.616667
2022-07-29T13:25:15.540Z,41.591667
2022-07-29T13:30:15.758Z,41.858333
2022-07-29T13:35:15.546Z,43.166667
2022-07-29T13:40:15.600Z,41.333333
2022-07-29T13:45:15.590Z,43.666667
2022-07-29T13:50:15.596Z,43.320833
2022-07-29T13:55:15.531Z,43.533333
2022-07-29T14:00:15.487Z,41.979167
2022-07-29T14:05:15.588Z,41.916667
2022-07-29T14:10:19.975Z,42.458333
2022-07-29T14:15:15.573Z,42.291667
2022-07-29T14:20:15.620Z,42.550000
2022-07-29T14:25:15.790Z,42.725000
2022-07-29T14:30:15.568Z,43.316667
2022-07-29T14:35:15.695Z,43.564000
2022-07-29T14:40:15.604Z,44.137500
2022-07-29T14:45:15.558Z,44.841667
2022-07-29T14:50:15.836Z,45.383333
2022-07-29T14:55:19.367Z,45.854167
2022-07-29T15:00:15.674Z,47.945833
2022-07-29T15:05:15.904Z,50.266667
2022-07-29T15:10:18.051Z,50.625000
2022-07-29T15:15:18.127Z,52.360000
2022-07-29T15:20:18.118Z,52.325000
2022-07-29T15:25:18.372Z,47.158333
2022-07-29T15:30:33.618Z,48.154167
2022-07-29T15:35:18.076Z,53.108333
2022-07-29T15:40:18.176Z,56.500000
2022-07-29T15:45:18.030Z,61.629167
2022-07-29T15:50:18.108Z,66.958333
2022-07-29T15:55:18.018Z,72.716667
2022-07-29T16:00:18.253Z,77.162500
2022-07-29T16:05:17.997Z,80.383333
2022-07-29T16:10:18.054Z,81.937500
2022-07-29T16:15:18.089Z,82.504167
2022-07-29T16:20:17.929Z,83.737500
2022-07-29T16:25:18.004Z,84.016667
2022-07-29T16:30:18.061Z,83.372000
2022-07-29T16:35:18.024Z,83.220833
2022-07-29T16:40:17.994Z,82.333333
2022-07-29T16:45:21.185Z,83.233333
2022-07-29T16:50:17.901Z,85.316667
2022-07-29T16:55:17.983Z,85.400000
2022-07-29T17:00:17.961Z,84.666667
2022-07-29T17:05:18.053Z,85.050000
2022-07-29T17:10:17.980Z,86.200000
2022-07-29T17:15:18.172Z,87.112000
2022-07-29T17:20:18.173Z,88.195833
2022-07-29T17:25:20.639Z,88.566667
2022-07-29T17:30:18.418Z,88.870833
2022-07-29T17:35:17.982Z,88.908333
2022-07-29T17:40:17.921Z,88.908333
2022-07-29T17:45:17.954Z,89.004167
2022-07-29T17:50:17.960Z,89.050000
2022-07-29T17:55:18.004Z,89.116667
2022-07-29T18:00:17.999Z,89.587500
2022-07-29T18:05:17.964Z,89.520833
2022-07-29T18:10:17.969Z,89.416667
2022-07-29T18:15:17.971Z,89.275000
2022-07-29T18:20:17.980Z,89.395833
2022-07-29T18:25:17.985Z,89.416667
2022-07-29T18:30:18.080Z,89.650000
2022-07-29T18:35:18.071Z,89.900000
2022-07-29T18:40:18.076Z,90.063158
2022-07-29T18:45:19.579Z,90.200000
2022-07-29T18:50:18.034Z,90.383333
2022-07-29T18:55:18.159Z,90.637500
2022-07-29T19:00:17.967Z,90.750000
2022-07-29T19:05:18.100Z,91.116667
2022-07-29T19:10:18.540Z,90.995833
2022-07-29T19:15:20.372Z,90.829167
2022-07-29T19:20:18.181Z,90.925000
2022-07-29T19:25:18.072Z,91.175000
2022-07-29T19:30:18.101Z,91.100000
2022-07-29T19:35:17.945Z,91.270833
2022-07-29T19:40:17.885Z,91.283333
2022-07-29T19:45:18.106Z,91.340000
2022-07-29T19:50:18.059Z,91.545833
2022-07-29T19:55:19.294Z,91.737500
2022-07-29T20:00:18.308Z,91.804167
2022-07-29T20:05:17.876Z,91.937500
2022-07-29T20:10:17.933Z,92.050000
2022-07-29T20:15:17.889Z,92.050000
2022-07-29T20:20:18.506Z,92.083333
2022-07-29T20:25:17.938Z,92.083333
2022-07-29T20:30:17.972Z,92.158333
2022-07-29T20:35:19.990Z,92.345833
2022-07-29T20:40:18.033Z,92.250000
2022-07-29T20:45:17.953Z,92.283333
2022-07-29T20:50:17.985Z,92.200000
2022-07-29T20:55:17.902Z,92.200000
2022-07-29T21:00:18.056Z,92.279167
2022-07-29T21:05:18.105Z,92.300000
2022-07-29T21:10:17.976Z,92.316667
2022-07-29T21:15:17.994Z,92.362500
2022-07-29T21:20:17.957Z,92.266667
2022-07-29T21:25:17.998Z,92.458333
2022-07-29T21:30:17.975Z,92.175000
2022-07-29T21:36:01.719Z,92.300000
2022-07-29T21:40:17.927Z,92.375000
2022-07-29T21:45:17.969Z,92.662500
2022-07-29T21:50:17.946Z,92.633333
2022-07-29T21:55:18.573Z,92.516667
2022-07-29T22:00:18.223Z,92.512500
2022-07-29T22:05:18.286Z,92.566667
2022-07-29T22:10:17.895Z,92.558333
2022-07-29T22:15:18.151Z,92.554167
2022-07-29T22:20:17.931Z,92.604167
2022-07-29T22:25:17.900Z,92.629167
2022-07-29T22:30:18.075Z,92.600000
2022-07-29T22:35:17.876Z,92.645833
2022-07-29T22:40:17.855Z,92.654167
2022-07-29T22:45:17.864Z,92.575000
2022-07-29T22:50:17.935Z,92.416667
2022-07-29T22:55:17.898Z,92.050000
2022-07-29T23:00:17.995Z,91.379167
2022-07-29T23:05:17.864Z,90.566667
2022-07-29T23:10:17.899Z,89.504167
2022-07-29T23:15:18.233Z,88.891667
2022-07-29T23:20:17.903Z,88.525000
2022-07-29T23:25:18.019Z,88.520833
2022-07-29T23:30:17.892Z,88.637500
2022-07-29T23:35:17.902Z,88.666667
2022-07-29T23:40:17.921Z,88.516667
2022-07-29T23:45:17.853Z,88.358333
2022-07-29T23:50:18.029Z,88.566667
2022-07-29T23:55:36.430Z,88.883333
